Terminal Aerodrome Forecast
Issued by NWS Louisville, KY

Home | Current Version | Previous Version | Text Only | Print | Product List | Glossary On
Versions: 1 2 3 4 5 6 7 8 9 10 11 12 13 14 15 16 17 18 19 20 21 22 23 24 25 26 27 28 29
116
FTUS43 KLMK 271158 AAA
TAFSDF
TAF AMD
KSDF 271158Z 2712/2818 VRB04KT P6SM SCT070
     FM271400 17008KT P6SM VCTS SCT035CB BKN100
     FM271500 17008KT P6SM SCT035 BKN100
     FM271900 17008KT 5SM SHRA VCTS BKN035CB
     FM280300 17005KT P6SM -SHRA BKN035=

USA.gov is the U.S. government's official web portal to all federal, state and local government web resources and services.